sensor_id;sensor_type;location;lat;lon;timestamp;pressure;altitude;pressure_sealevel;temperature;humidity
63970;BME280;50156;37.772;-122.432;2022-09-30T00:00:56;101011.15;;;21.68;100.00
63970;BME280;50156;37.772;-122.432;2022-09-30T00:03:25;101008.54;;;21.72;100.00
63970;BME280;50156;37.772;-122.432;2022-09-30T00:05:58;101007.22;;;21.66;100.00
63970;BME280;50156;37.772;-122.432;2022-09-30T00:08:26;100998.75;;;21.42;100.00
63970;BME280;50156;37.772;-122.432;2022-09-30T00:10:59;101000.24;;;21.36;100.00
63970;BME280;50156;37.772;-122.432;2022-09-30T00:13:28;101005.17;;;21.22;100.00
63970;BME280;50156;37.772;-122.432;2022-09-30T00:15:57;100998.33;;;21.30;100.00
63970;BME280;50156;37.772;-122.432;2022-09-30T00:18:25;100992.93;;;21.21;100.00
63970;BME280;50156;37.772;-122.432;2022-09-30T00:20:54;100989.67;;;21.44;100.00
63970;BME280;50156;37.772;-122.432;2022-09-30T00:23:24;100989.69;;;21.29;100.00
63970;BME280;50156;37.772;-122.432;2022-09-30T00:25:59;100983.70;;;21.25;100.00
63970;BME280;50156;37.772;-122.432;2022-09-30T00:28:29;100978.19;;;21.20;100.00
63970;BME280;50156;37.772;-122.432;2022-09-30T00:31:00;100982.19;;;21.01;100.00
63970;BME280;50156;37.772;-122.432;2022-09-30T00:33:29;100981.25;;;21.05;100.00
63970;BME280;50156;37.772;-122.432;2022-09-30T00:35:57;100981.15;;;21.07;100.00
63970;BME280;50156;37.772;-122.432;2022-09-30T00:38:27;100978.89;;;21.09;100.00
63970;BME280;50156;37.772;-122.432;2022-09-30T00:40:56;100977.84;;;20.95;100.00
63970;BME280;50156;37.772;-122.432;2022-09-30T00:43:40;100976.55;;;20.94;100.00
63970;BME280;50156;37.772;-122.432;2022-09-30T00:46:17;100976.88;;;20.87;100.00
63970;BME280;50156;37.772;-122.432;2022-09-30T00:48:49;100973.52;;;21.00;100.00
63970;BME280;50156;37.772;-122.432;2022-09-30T00:51:26;100975.60;;;20.87;100.00
63970;BME280;50156;37.772;-122.432;2022-09-30T00:53:58;100974.43;;;20.63;100.00
63970;BME280;50156;37.772;-122.432;2022-09-30T00:56:32;100974.21;;;20.88;100.00
63970;BME280;50156;37.772;-122.432;2022-09-30T00:59:04;100971.63;;;21.09;100.00
63970;BME280;50156;37.772;-122.432;2022-09-30T01:01:35;100973.83;;;21.04;100.00
63970;BME280;50156;37.772;-122.432;2022-09-30T01:04:10;100970.91;;;20.88;100.00
63970;BME280;50156;37.772;-122.432;2022-09-30T01:06:40;100971.63;;;20.94;100.00
63970;BME280;50156;37.772;-122.432;2022-09-30T01:09:10;100964.70;;;20.91;100.00
63970;BME280;50156;37.772;-122.432;2022-09-30T01:11:38;100966.64;;;20.89;100.00
63970;BME280;50156;37.772;-122.432;2022-09-30T01:14:09;100963.79;;;20.82;100.00
63970;BME280;50156;37.772;-122.432;2022-09-30T01:16:48;100957.38;;;20.59;100.00
63970;BME280;50156;37.772;-122.432;2022-09-30T01:19:32;100952.54;;;20.61;100.00
63970;BME280;50156;37.772;-122.432;2022-09-30T01:22:14;100951.22;;;20.62;100.00
63970;BME280;50156;37.772;-122.432;2022-09-30T01:25:38;100952.51;;;20.66;100.00
63970;BME280;50156;37.772;-122.432;2022-09-30T01:28:59;100950.61;;;20.36;100.00
63970;BME280;50156;37.772;-122.432;2022-09-30T01:31:47;100949.39;;;20.02;100.00
63970;BME280;50156;37.772;-122.432;2022-09-30T01:34:28;100941.05;;;19.81;100.00
63970;BME280;50156;37.772;-122.432;2022-09-30T01:37:08;100940.03;;;19.55;100.00
63970;BME280;50156;37.772;-122.432;2022-09-30T01:39:48;100941.45;;;19.53;100.00
63970;BME280;50156;37.772;-122.432;2022-09-30T01:42:25;100941.72;;;19.28;100.00
63970;BME280;50156;37.772;-122.432;2022-09-30T01:45:03;100943.33;;;18.83;100.00
63970;BME280;50156;37.772;-122.432;2022-09-30T01:47:40;100944.94;;;18.63;100.00
63970;BME280;50156;37.772;-122.432;2022-09-30T01:50:17;100937.04;;;18.48;100.00
63970;BME280;50156;37.772;-122.432;2022-09-30T01:52:54;100936.34;;;18.37;100.00
63970;BME280;50156;37.772;-122.432;2022-09-30T01:55:30;100940.44;;;18.26;100.00
63970;BME280;50156;37.772;-122.432;2022-09-30T01:58:04;100937.24;;;18.17;100.00
63970;BME280;50156;37.772;-122.432;2022-09-30T02:00:41;100935.80;;;18.10;100.00
63970;BME280;50156;37.772;-122.432;2022-09-30T02:03:16;100930.60;;;18.07;100.00
63970;BME280;50156;37.772;-122.432;2022-09-30T02:05:51;100930.18;;;18.00;100.00
63970;BME280;50156;37.772;-122.432;2022-09-30T02:08:27;100924.49;;;17.91;100.00
63970;BME280;50156;37.772;-122.432;2022-09-30T02:11:00;100923.05;;;17.85;100.00
63970;BME280;50156;37.772;-122.432;2022-09-30T02:13:37;100925.13;;;17.85;100.00
63970;BME280;50156;37.772;-122.432;2022-09-30T02:16:10;100926.85;;;17.82;100.00
63970;BME280;50156;37.772;-122.432;2022-09-30T02:18:43;100928.04;;;17.73;100.00
63970;BME280;50156;37.772;-122.432;2022-09-30T02:21:16;100921.31;;;17.59;100.00
63970;BME280;50156;37.772;-122.432;2022-09-30T02:23:51;100921.71;;;17.53;100.00
63970;BME280;50156;37.772;-122.432;2022-09-30T02:26:24;100920.97;;;17.48;100.00
63970;BME280;50156;37.772;-122.432;2022-09-30T02:29:00;100922.90;;;17.50;100.00
63970;BME280;50156;37.772;-122.432;2022-09-30T02:31:34;100917.67;;;17.43;100.00
63970;BME280;50156;37.772;-122.432;2022-09-30T02:34:06;100916.21;;;17.40;100.00
63970;BME280;50156;37.772;-122.432;2022-09-30T02:36:41;100912.02;;;17.40;100.00
63970;BME280;50156;37.772;-122.432;2022-09-30T02:39:19;100912.36;;;17.37;100.00
63970;BME280;50156;37.772;-122.432;2022-09-30T02:41:54;100912.81;;;17.39;100.00
63970;BME280;50156;37.772;-122.432;2022-09-30T02:44:24;100913.55;;;17.34;100.00
63970;BME280;50156;37.772;-122.432;2022-09-30T02:46:59;100910.03;;;17.31;100.00
63970;BME280;50156;37.772;-122.432;2022-09-30T02:49:35;100908.64;;;17.30;100.00
63970;BME280;50156;37.772;-122.432;2022-09-30T02:52:12;100906.14;;;17.32;100.00
63970;BME280;50156;37.772;-122.432;2022-09-30T02:54:49;100908.17;;;17.29;100.00
63970;BME280;50156;37.772;-122.432;2022-09-30T02:57:25;100907.44;;;17.28;100.00
63970;BME280;50156;37.772;-122.432;2022-09-30T02:59:57;100910.16;;;17.34;100.00
63970;BME280;50156;37.772;-122.432;2022-09-30T03:02:27;100911.30;;;17.38;100.00
63970;BME280;50156;37.772;-122.432;2022-09-30T03:04:57;100907.40;;;17.39;100.00
63970;BME280;50156;37.772;-122.432;2022-09-30T03:07:26;100913.06;;;17.38;100.00
63970;BME280;50156;37.772;-122.432;2022-09-30T03:09:56;100915.72;;;17.34;100.00
63970;BME280;50156;37.772;-122.432;2022-09-30T03:12:34;100913.37;;;17.36;100.00
63970;BME280;50156;37.772;-122.432;2022-09-30T03:15:19;100915.51;;;17.33;100.00
63970;BME280;50156;37.772;-122.432;2022-09-30T03:18:04;100914.31;;;17.32;100.00
63970;BME280;50156;37.772;-122.432;2022-09-30T03:20:45;100917.63;;;17.30;100.00
63970;BME280;50156;37.772;-122.432;2022-09-30T03:23:33;100918.52;;;17.24;100.00
63970;BME280;50156;37.772;-122.432;2022-09-30T03:26:15;100919.27;;;17.23;100.00
63970;BME280;50156;37.772;-122.432;2022-09-30T03:28:51;100917.67;;;17.17;100.00
63970;BME280;50156;37.772;-122.432;2022-09-30T03:31:29;100922.45;;;17.17;100.00
63970;BME280;50156;37.772;-122.432;2022-09-30T03:34:08;100920.38;;;17.19;100.00
63970;BME280;50156;37.772;-122.432;2022-09-30T03:36:43;100923.97;;;17.25;100.00
63970;BME280;50156;37.772;-122.432;2022-09-30T03:39:21;100920.17;;;17.26;100.00
63970;BME280;50156;37.772;-122.432;2022-09-30T03:41:58;100920.56;;;17.20;100.00
63970;BME280;50156;37.772;-122.432;2022-09-30T03:44:34;100923.85;;;17.16;100.00
63970;BME280;50156;37.772;-122.432;2022-09-30T03:47:07;100925.18;;;17.15;100.00
63970;BME280;50156;37.772;-122.432;2022-09-30T03:49:41;100929.63;;;17.15;100.00
63970;BME280;50156;37.772;-122.432;2022-09-30T03:52:12;100927.13;;;17.13;100.00
63970;BME280;50156;37.772;-122.432;2022-09-30T03:54:46;100923.18;;;17.08;100.00
63970;BME280;50156;37.772;-122.432;2022-09-30T03:57:16;100925.77;;;17.02;100.00
63970;BME280;50156;37.772;-122.432;2022-09-30T03:59:45;100925.19;;;16.93;100.00
63970;BME280;50156;37.772;-122.432;2022-09-30T04:02:14;100922.96;;;16.92;100.00
63970;BME280;50156;37.772;-122.432;2022-09-30T04:04:42;100922.71;;;16.84;100.00
63970;BME280;50156;37.772;-122.432;2022-09-30T04:07:12;100922.76;;;16.85;100.00
63970;BME280;50156;37.772;-122.432;2022-09-30T04:09:41;100923.09;;;16.79;100.00
63970;BME280;50156;37.772;-122.432;2022-09-30T04:12:10;100924.88;;;16.79;100.00
63970;BME280;50156;37.772;-122.432;2022-09-30T04:14:38;100923.60;;;16.70;100.00
63970;BME280;50156;37.772;-122.432;2022-09-30T04:17:07;100922.64;;;16.67;100.00
63970;BME280;50156;37.772;-122.432;2022-09-30T04:19:35;100927.17;;;16.67;100.00
63970;BME280;50156;37.772;-122.432;2022-09-30T04:22:04;100927.54;;;16.62;100.00
63970;BME280;50156;37.772;-122.432;2022-09-30T04:24:33;100928.97;;;16.60;100.00
63970;BME280;50156;37.772;-122.432;2022-09-30T04:27:02;100929.76;;;16.57;100.00
63970;BME280;50156;37.772;-122.432;2022-09-30T04:29:31;100931.33;;;16.52;100.00
63970;BME280;50156;37.772;-122.432;2022-09-30T04:32:00;100932.16;;;16.48;100.00
63970;BME280;50156;37.772;-122.432;2022-09-30T04:34:28;100935.14;;;16.38;100.00
63970;BME280;50156;37.772;-122.432;2022-09-30T04:36:57;100935.90;;;16.38;100.00
63970;BME280;50156;37.772;-122.432;2022-09-30T04:39:26;100931.63;;;16.34;100.00
63970;BME280;50156;37.772;-122.432;2022-09-30T04:41:54;100929.86;;;16.28;100.00
63970;BME280;50156;37.772;-122.432;2022-09-30T04:44:24;100932.17;;;16.23;100.00
63970;BME280;50156;37.772;-122.432;2022-09-30T04:46:53;100932.03;;;16.23;100.00
63970;BME280;50156;37.772;-122.432;2022-09-30T04:49:22;100933.01;;;16.18;100.00
63970;BME280;50156;37.772;-122.432;2022-09-30T04:51:51;100933.27;;;16.23;100.00
63970;BME280;50156;37.772;-122.432;2022-09-30T04:54:20;100935.03;;;16.18;100.00
63970;BME280;50156;37.772;-122.432;2022-09-30T04:56:48;100931.37;;;16.13;100.00
63970;BME280;50156;37.772;-122.432;2022-09-30T04:59:17;100931.30;;;16.14;100.00
63970;BME280;50156;37.772;-122.432;2022-09-30T05:01:45;100933.19;;;16.15;100.00
63970;BME280;50156;37.772;-122.432;2022-09-30T05:04:13;100934.85;;;16.10;100.00
63970;BME280;50156;37.772;-122.432;2022-09-30T05:06:41;100934.96;;;16.11;100.00
63970;BME280;50156;37.772;-122.432;2022-09-30T05:09:10;100937.48;;;16.10;100.00
63970;BME280;50156;37.772;-122.432;2022-09-30T05:11:39;100933.78;;;16.04;100.00
63970;BME280;50156;37.772;-122.432;2022-09-30T05:14:08;100939.05;;;16.11;100.00
63970;BME280;50156;37.772;-122.432;2022-09-30T05:16:37;100940.71;;;16.12;100.00
63970;BME280;50156;37.772;-122.432;2022-09-30T05:19:05;100943.92;;;16.10;100.00
63970;BME280;50156;37.772;-122.432;2022-09-30T05:21:34;100943.59;;;16.06;100.00
63970;BME280;50156;37.772;-122.432;2022-09-30T05:24:02;100945.60;;;16.00;100.00
63970;BME280;50156;37.772;-122.432;2022-09-30T05:26:31;100948.13;;;15.90;100.00
63970;BME280;50156;37.772;-122.432;2022-09-30T05:28:59;100948.13;;;15.86;100.00
63970;BME280;50156;37.772;-122.432;2022-09-30T05:31:28;100949.46;;;15.82;100.00
63970;BME280;50156;37.772;-122.432;2022-09-30T05:33:57;100949.45;;;15.80;100.00
63970;BME280;50156;37.772;-122.432;2022-09-30T05:36:27;100951.36;;;15.75;100.00
63970;BME280;50156;37.772;-122.432;2022-09-30T05:38:56;100955.03;;;15.74;100.00
63970;BME280;50156;37.772;-122.432;2022-09-30T05:41:24;100958.26;;;15.78;100.00
63970;BME280;50156;37.772;-122.432;2022-09-30T05:43:53;100958.08;;;15.75;100.00
63970;BME280;50156;37.772;-122.432;2022-09-30T05:46:21;100957.90;;;15.78;100.00
63970;BME280;50156;37.772;-122.432;2022-09-30T05:48:53;100957.81;;;15.79;100.00
63970;BME280;50156;37.772;-122.432;2022-09-30T05:51:22;100955.16;;;15.73;100.00
63970;BME280;50156;37.772;-122.432;2022-09-30T05:53:51;100954.41;;;15.72;100.00
63970;BME280;50156;37.772;-122.432;2022-09-30T05:56:19;100951.06;;;15.65;100.00
63970;BME280;50156;37.772;-122.432;2022-09-30T05:58:48;100951.48;;;15.79;100.00
63970;BME280;50156;37.772;-122.432;2022-09-30T06:01:17;100951.99;;;15.69;100.00
63970;BME280;50156;37.772;-122.432;2022-09-30T06:03:46;100949.03;;;15.68;100.00
63970;BME280;50156;37.772;-122.432;2022-09-30T06:06:15;100949.28;;;15.69;100.00
63970;BME280;50156;37.772;-122.432;2022-09-30T06:08:44;100947.43;;;15.67;100.00
63970;BME280;50156;37.772;-122.432;2022-09-30T06:11:15;100946.59;;;15.65;100.00
63970;BME280;50156;37.772;-122.432;2022-09-30T06:13:45;100947.04;;;15.66;100.00
63970;BME280;50156;37.772;-122.432;2022-09-30T06:16:15;100950.45;;;15.67;100.00
63970;BME280;50156;37.772;-122.432;2022-09-30T06:18:45;100949.57;;;15.63;100.00
63970;BME280;50156;37.772;-122.432;2022-09-30T06:21:15;100948.04;;;15.65;100.00
63970;BME280;50156;37.772;-122.432;2022-09-30T06:23:43;100947.62;;;15.61;100.00
63970;BME280;50156;37.772;-122.432;2022-09-30T06:26:13;100944.60;;;15.61;100.00
63970;BME280;50156;37.772;-122.432;2022-09-30T06:28:41;100943.86;;;15.57;100.00
63970;BME280;50156;37.772;-122.432;2022-09-30T06:31:10;100944.97;;;15.57;100.00
63970;BME280;50156;37.772;-122.432;2022-09-30T06:33:39;100945.22;;;15.55;100.00
63970;BME280;50156;37.772;-122.432;2022-09-30T06:36:08;100941.56;;;15.57;100.00
63970;BME280;50156;37.772;-122.432;2022-09-30T06:38:36;100937.38;;;15.57;100.00
63970;BME280;50156;37.772;-122.432;2022-09-30T06:41:06;100936.90;;;15.54;100.00
63970;BME280;50156;37.772;-122.432;2022-09-30T06:43:34;100937.64;;;15.48;100.00
63970;BME280;50156;37.772;-122.432;2022-09-30T06:46:03;100940.28;;;15.51;100.00
63970;BME280;50156;37.772;-122.432;2022-09-30T06:48:31;100940.86;;;15.42;100.00
63970;BME280;50156;37.772;-122.432;2022-09-30T06:51:00;100938.99;;;15.41;100.00
63970;BME280;50156;37.772;-122.432;2022-09-30T06:53:28;100935.94;;;15.40;100.00
63970;BME280;50156;37.772;-122.432;2022-09-30T06:55:58;100937.10;;;15.40;100.00
63970;BME280;50156;37.772;-122.432;2022-09-30T06:58:27;100934.19;;;15.35;100.00
63970;BME280;50156;37.772;-122.432;2022-09-30T07:00:57;100934.07;;;15.33;100.00
63970;BME280;50156;37.772;-122.432;2022-09-30T07:03:27;100930.54;;;15.34;100.00
63970;BME280;50156;37.772;-122.432;2022-09-30T07:05:58;100930.11;;;15.30;100.00
63970;BME280;50156;37.772;-122.432;2022-09-30T07:08:29;100929.59;;;15.30;100.00
63970;BME280;50156;37.772;-122.432;2022-09-30T07:10:59;100928.42;;;15.26;100.00
63970;BME280;50156;37.772;-122.432;2022-09-30T07:13:28;100928.56;;;15.25;100.00
63970;BME280;50156;37.772;-122.432;2022-09-30T07:15:56;100931.10;;;15.24;100.00
63970;BME280;50156;37.772;-122.432;2022-09-30T07:18:25;100933.30;;;15.27;100.00
63970;BME280;50156;37.772;-122.432;2022-09-30T07:20:55;100930.79;;;15.31;100.00
63970;BME280;50156;37.772;-122.432;2022-09-30T07:23:24;100931.54;;;15.31;100.00
63970;BME280;50156;37.772;-122.432;2022-09-30T07:25:54;100928.15;;;15.30;100.00
63970;BME280;50156;37.772;-122.432;2022-09-30T07:28:24;100928.53;;;15.30;100.00
63970;BME280;50156;37.772;-122.432;2022-09-30T07:30:53;100925.65;;;15.33;100.00
63970;BME280;50156;37.772;-122.432;2022-09-30T07:33:22;100923.26;;;15.29;100.00
63970;BME280;50156;37.772;-122.432;2022-09-30T07:35:53;100923.20;;;15.25;100.00
63970;BME280;50156;37.772;-122.432;2022-09-30T07:38:25;100921.07;;;15.29;100.00
63970;BME280;50156;37.772;-122.432;2022-09-30T07:40:57;100918.33;;;15.29;100.00
63970;BME280;50156;37.772;-122.432;2022-09-30T07:43:28;100911.81;;;15.28;100.00
63970;BME280;50156;37.772;-122.432;2022-09-30T07:45:57;100908.06;;;15.26;100.00
63970;BME280;50156;37.772;-122.432;2022-09-30T07:48:26;100905.64;;;15.33;100.00
63970;BME280;50156;37.772;-122.432;2022-09-30T07:50:55;100900.85;;;15.32;100.00
63970;BME280;50156;37.772;-122.432;2022-09-30T07:53:24;100899.27;;;15.27;100.00
63970;BME280;50156;37.772;-122.432;2022-09-30T07:55:53;100894.25;;;15.30;100.00
63970;BME280;50156;37.772;-122.432;2022-09-30T07:58:21;100892.81;;;15.27;100.00
63970;BME280;50156;37.772;-122.432;2022-09-30T08:00:50;100893.67;;;15.33;100.00
63970;BME280;50156;37.772;-122.432;2022-09-30T08:03:19;100890.19;;;15.29;100.00
63970;BME280;50156;37.772;-122.432;2022-09-30T08:05:48;100894.03;;;15.27;100.00
63970;BME280;50156;37.772;-122.432;2022-09-30T08:08:16;100896.24;;;15.20;100.00
63970;BME280;50156;37.772;-122.432;2022-09-30T08:10:45;100898.09;;;15.23;100.00
63970;BME280;50156;37.772;-122.432;2022-09-30T08:13:13;100898.06;;;15.21;100.00
63970;BME280;50156;37.772;-122.432;2022-09-30T08:15:42;100897.19;;;15.18;100.00
63970;BME280;50156;37.772;-122.432;2022-09-30T08:18:11;100901.26;;;15.19;100.00
63970;BME280;50156;37.772;-122.432;2022-09-30T08:20:39;100904.81;;;15.17;100.00
63970;BME280;50156;37.772;-122.432;2022-09-30T08:23:07;100904.70;;;15.16;100.00
63970;BME280;50156;37.772;-122.432;2022-09-30T08:25:36;100905.17;;;15.16;100.00
63970;BME280;50156;37.772;-122.432;2022-09-30T08:28:04;100907.56;;;15.14;100.00
63970;BME280;50156;37.772;-122.432;2022-09-30T08:30:35;100904.12;;;15.06;100.00
63970;BME280;50156;37.772;-122.432;2022-09-30T08:33:04;100905.29;;;15.09;100.00
63970;BME280;50156;37.772;-122.432;2022-09-30T08:35:35;100904.88;;;15.08;100.00
63970;BME280;50156;37.772;-122.432;2022-09-30T08:38:04;100907.73;;;15.11;100.00
63970;BME280;50156;37.772;-122.432;2022-09-30T08:40:35;100907.88;;;15.11;100.00
63970;BME280;50156;37.772;-122.432;2022-09-30T08:43:21;100904.88;;;15.09;100.00
63970;BME280;50156;37.772;-122.432;2022-09-30T08:46:00;100905.63;;;14.99;100.00
63970;BME280;50156;37.772;-122.432;2022-09-30T08:48:44;100907.00;;;15.01;100.00
63970;BME280;50156;37.772;-122.432;2022-09-30T08:51:28;100905.05;;;14.98;100.00
63970;BME280;50156;37.772;-122.432;2022-09-30T08:53:59;100904.20;;;14.99;100.00
63970;BME280;50156;37.772;-122.432;2022-09-30T08:56:31;100909.15;;;15.00;100.00
63970;BME280;50156;37.772;-122.432;2022-09-30T08:59:05;100907.93;;;15.01;100.00
63970;BME280;50156;37.772;-122.432;2022-09-30T09:01:37;100909.43;;;15.01;100.00
63970;BME280;50156;37.772;-122.432;2022-09-30T09:04:08;100908.40;;;15.02;100.00
63970;BME280;50156;37.772;-122.432;2022-09-30T09:06:46;100908.62;;;14.98;100.00
63970;BME280;50156;37.772;-122.432;2022-09-30T09:09:31;100911.17;;;14.96;100.00
63970;BME280;50156;37.772;-122.432;2022-09-30T09:12:13;100912.24;;;14.95;100.00
63970;BME280;50156;37.772;-122.432;2022-09-30T09:14:55;100911.68;;;14.94;100.00
63970;BME280;50156;37.772;-122.432;2022-09-30T09:17:37;100915.83;;;14.95;100.00
63970;BME280;50156;37.772;-122.432;2022-09-30T09:20:14;100916.08;;;14.93;100.00
63970;BME280;50156;37.772;-122.432;2022-09-30T09:22:45;100922.99;;;14.96;100.00
63970;BME280;50156;37.772;-122.432;2022-09-30T09:25:15;100924.26;;;14.93;100.00
63970;BME280;50156;37.772;-122.432;2022-09-30T09:27:50;100923.32;;;14.92;100.00
63970;BME280;50156;37.772;-122.432;2022-09-30T09:30:21;100926.50;;;14.93;100.00
63970;BME280;50156;37.772;-122.432;2022-09-30T09:32:53;100922.13;;;14.89;100.00
63970;BME280;50156;37.772;-122.432;2022-09-30T09:35:30;100922.24;;;14.82;100.00
63970;BME280;50156;37.772;-122.432;2022-09-30T09:38:09;100920.20;;;14.87;100.00
63970;BME280;50156;37.772;-122.432;2022-09-30T09:40:48;100919.66;;;14.82;100.00
63970;BME280;50156;37.772;-122.432;2022-09-30T09:43:23;100915.24;;;14.84;100.00
63970;BME280;50156;37.772;-122.432;2022-09-30T09:46:01;100913.52;;;14.80;100.00
63970;BME280;50156;37.772;-122.432;2022-09-30T09:48:35;100913.50;;;14.79;100.00
63970;BME280;50156;37.772;-122.432;2022-09-30T09:51:12;100910.13;;;14.74;100.00
63970;BME280;50156;37.772;-122.432;2022-09-30T09:53:48;100911.30;;;14.78;100.00
63970;BME280;50156;37.772;-122.432;2022-09-30T09:56:19;100910.54;;;14.76;100.00
63970;BME280;50156;37.772;-122.432;2022-09-30T09:59:06;100910.80;;;14.78;100.00
63970;BME280;50156;37.772;-122.432;2022-09-30T10:01:37;100915.63;;;14.71;100.00
63970;BME280;50156;37.772;-122.432;2022-09-30T10:04:12;100912.73;;;14.71;100.00
63970;BME280;50156;37.772;-122.432;2022-09-30T10:06:45;100910.66;;;14.71;100.00
63970;BME280;50156;37.772;-122.432;2022-09-30T10:09:36;100907.45;;;14.69;100.00
63970;BME280;50156;37.772;-122.432;2022-09-30T10:12:37;100907.87;;;14.69;100.00
63970;BME280;50156;37.772;-122.432;2022-09-30T10:15:17;100905.96;;;14.67;100.00
63970;BME280;50156;37.772;-122.432;2022-09-30T10:17:52;100901.73;;;14.67;100.00
63970;BME280;50156;37.772;-122.432;2022-09-30T10:20:27;100899.61;;;14.66;100.00
63970;BME280;50156;37.772;-122.432;2022-09-30T10:23:16;100897.34;;;14.67;100.00
63970;BME280;50156;37.772;-122.432;2022-09-30T10:25:57;100897.98;;;14.60;100.00
63970;BME280;50156;37.772;-122.432;2022-09-30T10:28:29;100894.38;;;14.63;100.00
63970;BME280;50156;37.772;-122.432;2022-09-30T10:31:01;100892.61;;;14.55;100.00
63970;BME280;50156;37.772;-122.432;2022-09-30T10:33:35;100893.52;;;14.59;100.00
63970;BME280;50156;37.772;-122.432;2022-09-30T10:36:09;100892.08;;;14.59;100.00
63970;BME280;50156;37.772;-122.432;2022-09-30T10:38:48;100889.41;;;14.59;100.00
63970;BME280;50156;37.772;-122.432;2022-09-30T10:41:23;100885.94;;;14.56;100.00
63970;BME280;50156;37.772;-122.432;2022-09-30T10:43:54;100884.62;;;14.60;100.00
63970;BME280;50156;37.772;-122.432;2022-09-30T10:46:25;100884.77;;;14.52;100.00
63970;BME280;50156;37.772;-122.432;2022-09-30T10:48:56;100885.91;;;14.56;100.00
63970;BME280;50156;37.772;-122.432;2022-09-30T10:51:28;100884.98;;;14.51;100.00
63970;BME280;50156;37.772;-122.432;2022-09-30T10:53:57;100883.09;;;14.51;100.00
63970;BME280;50156;37.772;-122.432;2022-09-30T10:56:34;100877.55;;;14.53;100.00
63970;BME280;50156;37.772;-122.432;2022-09-30T10:59:05;100874.90;;;14.50;100.00
63970;BME280;50156;37.772;-122.432;2022-09-30T11:01:39;100874.44;;;14.48;100.00
63970;BME280;50156;37.772;-122.432;2022-09-30T11:04:14;100869.98;;;14.37;100.00
63970;BME280;50156;37.772;-122.432;2022-09-30T11:06:47;100869.49;;;14.39;100.00
63970;BME280;50156;37.772;-122.432;2022-09-30T11:09:19;100869.16;;;14.36;100.00
63970;BME280;50156;37.772;-122.432;2022-09-30T11:11:53;100868.69;;;14.35;100.00
63970;BME280;50156;37.772;-122.432;2022-09-30T11:14:32;100871.78;;;14.35;100.00
63970;BME280;50156;37.772;-122.432;2022-09-30T11:17:10;100883.61;;;14.27;100.00
63970;BME280;50156;37.772;-122.432;2022-09-30T11:19:50;100886.62;;;14.31;100.00
63970;BME280;50156;37.772;-122.432;2022-09-30T11:22:38;100882.81;;;14.29;100.00
63970;BME280;50156;37.772;-122.432;2022-09-30T11:25:13;100876.41;;;14.27;100.00
63970;BME280;50156;37.772;-122.432;2022-09-30T11:27:54;100874.47;;;14.26;100.00
63970;BME280;50156;37.772;-122.432;2022-09-30T11:30:32;100873.75;;;14.27;100.00
63970;BME280;50156;37.772;-122.432;2022-09-30T11:33:17;100872.83;;;14.30;100.00
63970;BME280;50156;37.772;-122.432;2022-09-30T11:35:58;100873.45;;;14.32;100.00
63970;BME280;50156;37.772;-122.432;2022-09-30T11:38:43;100872.35;;;14.29;100.00
63970;BME280;50156;37.772;-122.432;2022-09-30T11:41:20;100875.11;;;14.31;100.00
63970;BME280;50156;37.772;-122.432;2022-09-30T11:43:57;100872.91;;;14.27;100.00
63970;BME280;50156;37.772;-122.432;2022-09-30T11:46:45;100873.13;;;14.28;100.00
63970;BME280;50156;37.772;-122.432;2022-09-30T11:49:33;100874.39;;;14.27;100.00
63970;BME280;50156;37.772;-122.432;2022-09-30T11:52:11;100873.51;;;14.32;100.00
63970;BME280;50156;37.772;-122.432;2022-09-30T11:54:54;100873.74;;;14.34;100.00
63970;BME280;50156;37.772;-122.432;2022-09-30T11:57:30;100871.90;;;14.33;100.00
63970;BME280;50156;37.772;-122.432;2022-09-30T12:00:04;100869.52;;;14.38;100.00
63970;BME280;50156;37.772;-122.432;2022-09-30T12:02:36;100864.03;;;14.39;100.00
63970;BME280;50156;37.772;-122.432;2022-09-30T12:05:08;100862.48;;;14.42;100.00
63970;BME280;50156;37.772;-122.432;2022-09-30T12:07:43;100859.36;;;14.32;100.00
63970;BME280;50156;37.772;-122.432;2022-09-30T12:10:18;100857.89;;;14.25;100.00
63970;BME280;50156;37.772;-122.432;2022-09-30T12:12:53;100853.17;;;14.29;100.00
63970;BME280;50156;37.772;-122.432;2022-09-30T12:15:23;100851.29;;;14.25;100.00
63970;BME280;50156;37.772;-122.432;2022-09-30T12:17:56;100851.65;;;14.27;100.00
63970;BME280;50156;37.772;-122.432;2022-09-30T12:20:30;100850.05;;;14.21;100.00
63970;BME280;50156;37.772;-122.432;2022-09-30T12:23:08;100853.39;;;14.49;100.00
63970;BME280;50156;37.772;-122.432;2022-09-30T12:25:45;100853.71;;;14.66;100.00
63970;BME280;50156;37.772;-122.432;2022-09-30T12:28:25;100850.66;;;14.57;100.00
63970;BME280;50156;37.772;-122.432;2022-09-30T12:31:05;100847.12;;;14.44;100.00
63970;BME280;50156;37.772;-122.432;2022-09-30T12:33:48;100846.58;;;14.37;100.00
63970;BME280;50156;37.772;-122.432;2022-09-30T12:36:33;100844.12;;;14.41;100.00
63970;BME280;50156;37.772;-122.432;2022-09-30T12:39:31;100844.37;;;14.27;100.00
63970;BME280;50156;37.772;-122.432;2022-09-30T12:42:18;100839.96;;;14.26;100.00